Time;durP1;ratioP1;P1;durP2;ratioP2;P2;SDS_P1;SDS_P2;PMS_P1;PMS_P2;Temp;Humidity;BMP_temperature;BMP_pressure;BME280_temperature;BME280_humidity;BME280_pressure;Samples;Min_cycle;Max_cycle;Signal;HPM_P1;HPM_P2
2021/01/03 00:01:52;;;;;;;4.57;3.13;;;;;;;;;;5092595;28;20036;-73
2021/01/03 00:04:17;;;;;;;5.53;3.47;;;;;;;;;;5093366;28;20036;-72
2021/01/03 00:06:43;;;;;;;5.63;2.97;;;;;;;;;;5093748;28;20082;-72
2021/01/03 00:09:10;;;;;;;4.05;2.92;;;;;;;;;;5093970;28;20056;-73
2021/01/03 00:11:37;;;;;;;4.05;2.40;;;;;;;;;;5092629;28;20036;-73
2021/01/03 00:14:04;;;;;;;6.30;3.58;;;;;;;;;;5093800;28;20047;-73
2021/01/03 00:16:29;;;;;;;7.38;3.30;;;;;;;;;;5092781;28;20074;-73
2021/01/03 00:18:54;;;;;;;5.72;3.53;;;;;;;;;;5092106;28;20067;-73
2021/01/03 00:21:20;;;;;;;5.38;3.10;;;;;;;;;;5091607;28;20031;-73
2021/01/03 00:23:45;;;;;;;6.95;3.42;;;;;;;;;;5093454;28;20420;-73
2021/01/03 00:26:11;;;;;;;4.25;2.60;;;;;;;;;;5092273;28;20040;-73
2021/01/03 00:28:37;;;;;;;4.22;3.00;;;;;;;;;;5092187;28;20032;-73
2021/01/03 00:31:02;;;;;;;5.18;3.20;;;;;;;;;;5093320;28;20028;-72
2021/01/03 00:33:27;;;;;;;5.13;2.92;;;;;;;;;;5093467;28;20371;-72
2021/01/03 00:35:53;;;;;;;7.97;2.97;;;;;;;;;;5093283;28;20075;-73
2021/01/03 00:38:19;;;;;;;7.05;3.58;;;;;;;;;;5091862;28;20061;-72
2021/01/03 00:40:45;;;;;;;7.07;4.22;;;;;;;;;;5093810;28;20036;-73
2021/01/03 00:43:12;;;;;;;5.65;3.65;;;;;;;;;;5093158;28;20358;-73
2021/01/03 00:45:38;;;;;;;5.45;3.70;;;;;;;;;;5093240;28;20043;-72
2021/01/03 00:48:05;;;;;;;5.75;3.55;;;;;;;;;;5093375;28;20452;-72
2021/01/03 00:50:31;;;;;;;8.02;3.88;;;;;;;;;;5093003;28;20115;-72
2021/01/03 00:52:56;;;;;;;8.82;4.85;;;;;;;;;;5092217;28;20619;-73
2021/01/03 00:55:22;;;;;;;7.72;4.07;;;;;;;;;;5092995;28;20044;-73
2021/01/03 00:57:47;;;;;;;6.40;3.58;;;;;;;;;;5093096;28;20032;-73
2021/01/03 01:00:22;;;;;;;6.18;3.70;;;;;;;;;;5092619;28;20473;-72
2021/01/03 01:02:48;;;;;;;7.60;3.90;;;;;;;;;;5090186;28;20028;-72
2021/01/03 01:05:14;;;;;;;7.65;4.20;;;;;;;;;;5091764;28;20031;-72
2021/01/03 01:07:40;;;;;;;5.13;3.88;;;;;;;;;;5091964;28;20093;-72
2021/01/03 01:10:10;;;;;;;7.50;4.63;;;;;;;;;;5092584;28;20482;-73
2021/01/03 01:12:36;;;;;;;7.30;4.18;;;;;;;;;;5094312;28;20040;-73
2021/01/03 01:15:08;;;;;;;7.68;4.10;;;;;;;;;;5096861;28;20054;-73
2021/01/03 01:17:33;;;;;;;6.03;4.30;;;;;;;;;;5096868;28;20038;-73
2021/01/03 01:19:59;;;;;;;7.53;5.03;;;;;;;;;;5096153;28;20548;-72
2021/01/03 01:22:24;;;;;;;7.97;4.78;;;;;;;;;;5097176;28;20040;-72
2021/01/03 01:24:50;;;;;;;7.10;4.57;;;;;;;;;;5078789;28;20135;-73
2021/01/03 01:27:15;;;;;;;7.60;4.80;;;;;;;;;;5096970;28;20073;-73
2021/01/03 01:29:41;;;;;;;9.25;4.78;;;;;;;;;;5096600;28;20055;-73
2021/01/03 01:32:06;;;;;;;9.18;5.25;;;;;;;;;;5095852;28;20085;-72
2021/01/03 01:34:31;;;;;;;8.13;5.15;;;;;;;;;;5096823;28;20039;-72
2021/01/03 01:36:57;;;;;;;9.27;5.60;;;;;;;;;;5097082;28;20035;-73
2021/01/03 01:39:22;;;;;;;8.10;5.85;;;;;;;;;;5096599;28;20417;-73
2021/01/03 01:41:48;;;;;;;9.18;5.93;;;;;;;;;;5096565;28;20070;-73
2021/01/03 01:44:13;;;;;;;9.07;5.13;;;;;;;;;;5094906;28;20169;-73
2021/01/03 01:46:50;;;;;;;9.80;5.38;;;;;;;;;;5096647;28;20081;-73
2021/01/03 01:49:16;;;;;;;10.15;6.13;;;;;;;;;;5094384;28;20035;-73
2021/01/03 01:51:46;;;;;;;9.35;6.00;;;;;;;;;;5095421;28;20123;-73
2021/01/03 01:54:21;;;;;;;9.75;6.07;;;;;;;;;;5095240;28;20393;-73
2021/01/03 01:57:01;;;;;;;11.30;6.68;;;;;;;;;;5095081;28;20028;-73
2021/01/03 02:00:05;;;;;;;10.35;6.57;;;;;;;;;;5096298;28;20048;-73
2021/01/03 02:02:39;;;;;;;11.85;7.00;;;;;;;;;;5096181;28;20127;-73
2021/01/03 02:05:07;;;;;;;11.63;6.60;;;;;;;;;;5094236;28;20078;-73
2021/01/03 02:07:43;;;;;;;8.27;5.65;;;;;;;;;;5093378;28;20036;-73
2021/01/03 02:10:16;;;;;;;9.90;6.43;;;;;;;;;;5094694;28;20227;-73
2021/01/03 02:12:45;;;;;;;11.35;6.78;;;;;;;;;;5095970;28;20036;-73
2021/01/03 02:15:19;;;;;;;12.02;6.68;;;;;;;;;;5096019;28;20131;-73
2021/01/03 02:17:45;;;;;;;10.02;6.68;;;;;;;;;;5075447;28;20047;-72
2021/01/03 02:20:13;;;;;;;9.90;6.28;;;;;;;;;;5075644;28;20063;-73
2021/01/03 02:22:42;;;;;;;10.45;6.55;;;;;;;;;;5074992;28;20033;-73
2021/01/03 02:25:10;;;;;;;10.75;7.15;;;;;;;;;;5090181;28;20032;-73
2021/01/03 02:27:47;;;;;;;11.48;7.47;;;;;;;;;;5095896;28;20067;-73
2021/01/03 02:30:14;;;;;;;13.07;7.38;;;;;;;;;;5095888;28;20409;-72
2021/01/03 02:32:45;;;;;;;14.05;8.07;;;;;;;;;;5095870;28;20479;-73
2021/01/03 02:35:13;;;;;;;11.27;6.60;;;;;;;;;;5095803;28;20032;-73
2021/01/03 02:37:42;;;;;;;12.70;6.97;;;;;;;;;;5095361;28;20028;-72
2021/01/03 02:40:16;;;;;;;13.63;7.88;;;;;;;;;;5095539;28;20412;-73
2021/01/03 02:42:42;;;;;;;10.90;7.15;;;;;;;;;;5095397;28;20481;-72
2021/01/03 02:45:17;;;;;;;10.90;7.43;;;;;;;;;;5095365;28;20097;-73
2021/01/03 02:47:42;;;;;;;14.50;8.02;;;;;;;;;;5094512;28;20036;-73
2021/01/03 02:50:10;;;;;;;14.25;8.27;;;;;;;;;;5095419;28;20051;-73
2021/01/03 02:52:38;;;;;;;13.55;8.02;;;;;;;;;;5094237;28;20036;-73
2021/01/03 02:55:06;;;;;;;13.35;8.13;;;;;;;;;;5095274;28;20067;-73
2021/01/03 02:57:31;;;;;;;13.05;7.80;;;;;;;;;;5093294;28;20032;-73
2021/01/03 02:59:57;;;;;;;14.30;8.68;;;;;;;;;;5094732;28;20511;-72
2021/01/03 03:02:22;;;;;;;14.43;7.57;;;;;;;;;;5094944;28;20485;-72
2021/01/03 03:04:48;;;;;;;14.00;8.52;;;;;;;;;;5093340;28;20036;-73
2021/01/03 03:07:14;;;;;;;13.77;8.65;;;;;;;;;;5095134;28;20036;-73
2021/01/03 03:09:40;;;;;;;11.10;7.60;;;;;;;;;;5095061;28;20038;-73
2021/01/03 03:12:06;;;;;;;13.75;8.32;;;;;;;;;;5094951;28;20107;-73
2021/01/03 03:14:31;;;;;;;13.48;8.52;;;;;;;;;;5095005;28;20052;-73
2021/01/03 03:17:01;;;;;;;13.93;8.77;;;;;;;;;;5094706;28;20489;-73
2021/01/03 03:19:27;;;;;;;13.73;8.90;;;;;;;;;;5094516;28;20040;-73
2021/01/03 03:21:53;;;;;;;14.07;8.07;;;;;;;;;;5092748;28;20034;-73
2021/01/03 03:24:20;;;;;;;13.32;9.18;;;;;;;;;;5094669;28;20418;-73
2021/01/03 03:26:52;;;;;;;14.02;8.48;;;;;;;;;;5094428;28;20040;-72
2021/01/03 03:29:17;;;;;;;15.68;8.88;;;;;;;;;;5094473;28;20039;-73
2021/01/03 03:31:42;;;;;;;13.50;9.02;;;;;;;;;;5094866;28;20032;-72
2021/01/03 03:34:08;;;;;;;13.57;9.00;;;;;;;;;;5094419;28;20520;-73
2021/01/03 03:36:33;;;;;;;12.98;8.57;;;;;;;;;;5093450;28;20114;-73
2021/01/03 03:38:58;;;;;;;17.25;8.55;;;;;;;;;;5094521;28;20063;-73
2021/01/03 03:41:26;;;;;;;17.05;8.98;;;;;;;;;;5093786;28;20505;-73
2021/01/03 03:43:52;;;;;;;16.95;9.43;;;;;;;;;;5093974;28;20055;-73
2021/01/03 03:46:18;;;;;;;14.23;8.80;;;;;;;;;;5093288;28;20035;-73
2021/01/03 03:48:44;;;;;;;14.63;9.13;;;;;;;;;;5094140;28;20058;-73
2021/01/03 03:51:15;;;;;;;13.25;8.98;;;;;;;;;;5092743;28;20089;-73
2021/01/03 03:53:40;;;;;;;14.90;8.80;;;;;;;;;;5093703;28;20085;-72
2021/01/03 03:56:09;;;;;;;15.80;9.32;;;;;;;;;;5093824;28;20044;-73
2021/01/03 03:58:34;;;;;;;18.60;8.90;;;;;;;;;;5093914;28;20029;-73
2021/01/03 04:00:59;;;;;;;14.90;9.15;;;;;;;;;;5094019;28;20480;-72
2021/01/03 04:03:25;;;;;;;16.38;9.57;;;;;;;;;;5094063;28;20065;-73
2021/01/03 04:05:50;;;;;;;15.07;9.15;;;;;;;;;;5092721;28;20067;-72
2021/01/03 04:08:15;;;;;;;17.60;8.40;;;;;;;;;;5092533;28;20565;-73
2021/01/03 04:10:41;;;;;;;14.40;9.40;;;;;;;;;;5093570;28;20039;-73
2021/01/03 04:13:09;;;;;;;16.10;9.98;;;;;;;;;;5093104;28;20028;-73
2021/01/03 04:15:35;;;;;;;16.85;9.93;;;;;;;;;;5092454;28;20107;-73
2021/01/03 04:18:00;;;;;;;14.23;9.20;;;;;;;;;;5093745;28;20367;-73
2021/01/03 04:20:26;;;;;;;19.48;9.95;;;;;;;;;;5093304;28;20039;-72
2021/01/03 04:22:51;;;;;;;16.60;9.35;;;;;;;;;;5093505;28;20047;-73
2021/01/03 04:25:18;;;;;;;15.80;9.32;;;;;;;;;;5093494;28;20047;-73
2021/01/03 04:27:44;;;;;;;19.27;10.55;;;;;;;;;;5093344;28;20092;-73
2021/01/03 04:30:11;;;;;;;14.02;8.43;;;;;;;;;;5093463;28;20055;-72
2021/01/03 04:32:36;;;;;;;17.20;9.25;;;;;;;;;;5092844;28;20036;-73
2021/01/03 04:35:03;;;;;;;15.93;10.10;;;;;;;;;;5092645;28;20051;-73
2021/01/03 04:37:29;;;;;;;15.57;9.50;;;;;;;;;;5093155;28;20512;-72
2021/01/03 04:39:54;;;;;;;15.50;9.82;;;;;;;;;;5093351;28;20044;-73
2021/01/03 04:42:23;;;;;;;16.73;9.93;;;;;;;;;;5093405;28;20447;-73
2021/01/03 04:44:56;;;;;;;17.83;11.27;;;;;;;;;;5092881;28;20048;-73
2021/01/03 04:47:28;;;;;;;19.02;10.13;;;;;;;;;;5092759;28;20552;-73
2021/01/03 04:50:13;;;;;;;18.08;10.35;;;;;;;;;;5093277;28;20054;-73
2021/01/03 04:52:53;;;;;;;17.42;10.63;;;;;;;;;;5092630;28;20028;-72
2021/01/03 04:55:21;;;;;;;19.35;9.93;;;;;;;;;;5093076;28;20046;-73
2021/01/03 04:57:54;;;;;;;17.00;10.57;;;;;;;;;;5091540;28;20043;-72
2021/01/03 05:00:31;;;;;;;19.02;11.52;;;;;;;;;;5093091;28;20404;-73
2021/01/03 05:03:06;;;;;;;15.65;9.80;;;;;;;;;;5092281;28;20393;-72
2021/01/03 05:05:35;;;;;;;16.63;11.03;;;;;;;;;;5093080;28;20036;-73
2021/01/03 05:08:15;;;;;;;17.55;10.82;;;;;;;;;;5091895;28;20036;-73
2021/01/03 05:10:41;;;;;;;24.02;10.98;;;;;;;;;;5093383;28;20115;-73
2021/01/03 05:13:28;;;;;;;16.42;10.20;;;;;;;;;;5092780;28;20122;-73
2021/01/03 05:15:54;;;;;;;17.98;11.02;;;;;;;;;;5091557;28;20607;-72
2021/01/03 05:18:19;;;;;;;17.15;10.40;;;;;;;;;;5092536;28;20040;-73
2021/01/03 05:20:56;;;;;;;15.88;9.70;;;;;;;;;;5092382;28;20032;-73
2021/01/03 05:23:24;;;;;;;17.05;10.45;;;;;;;;;;5091106;28;20067;-72
2021/01/03 05:25:52;;;;;;;18.45;9.98;;;;;;;;;;5092979;28;20050;-73
2021/01/03 05:28:26;;;;;;;16.92;10.18;;;;;;;;;;5091625;28;20035;-73
2021/01/03 05:30:52;;;;;;;14.40;8.63;;;;;;;;;;5093051;28;20512;-73
2021/01/03 05:33:25;;;;;;;17.75;10.32;;;;;;;;;;5091712;28;20036;-72
2021/01/03 05:35:51;;;;;;;19.13;10.95;;;;;;;;;;5092589;28;20067;-72
2021/01/03 05:38:39;;;;;;;16.20;8.98;;;;;;;;;;5092818;28;20055;-73
2021/01/03 05:41:20;;;;;;;14.70;8.90;;;;;;;;;;5092719;28;20053;-73
2021/01/03 05:43:55;;;;;;;15.07;8.57;;;;;;;;;;5092762;28;20132;-73
2021/01/03 05:46:31;;;;;;;13.35;8.48;;;;;;;;;;5091563;28;20028;-73
2021/01/03 05:49:01;;;;;;;16.08;8.32;;;;;;;;;;5091651;28;20028;-73
2021/01/03 05:51:46;;;;;;;14.88;8.63;;;;;;;;;;5092301;28;20035;-73
2021/01/03 05:54:16;;;;;;;13.75;8.52;;;;;;;;;;5091424;28;20032;-73
2021/01/03 05:56:43;;;;;;;11.13;7.38;;;;;;;;;;5092434;28;20174;-73
2021/01/03 05:59:15;;;;;;;14.52;7.53;;;;;;;;;;5093999;28;20044;-73
2021/01/03 06:01:40;;;;;;;14.40;8.32;;;;;;;;;;5095803;28;20473;-73
2021/01/03 06:04:10;;;;;;;14.57;8.85;;;;;;;;;;5096312;28;20082;-73
2021/01/03 06:06:51;;;;;;;14.02;8.18;;;;;;;;;;5095106;28;20044;-73
2021/01/03 06:09:19;;;;;;;13.68;8.15;;;;;;;;;;5095661;28;20549;-73
2021/01/03 06:12:19;;;;;;;10.40;7.43;;;;;;;;;;5095908;28;20032;-72
2021/01/03 06:14:46;;;;;;;14.38;8.20;;;;;;;;;;5096280;28;20032;-73
2021/01/03 06:17:19;;;;;;;13.90;8.20;;;;;;;;;;5093306;28;20047;-73
2021/01/03 06:19:51;;;;;;;13.55;7.97;;;;;;;;;;5095929;28;20058;-73
2021/01/03 06:22:34;;;;;;;12.52;7.00;;;;;;;;;;5095480;28;20032;-73
2021/01/03 06:25:03;;;;;;;9.38;6.50;;;;;;;;;;5095674;28;20039;-73
2021/01/03 06:27:33;;;;;;;12.23;6.57;;;;;;;;;;5095523;28;20036;-73
2021/01/03 06:30:13;;;;;;;11.82;6.70;;;;;;;;;;5095863;28;20127;-73
2021/01/03 06:32:49;;;;;;;11.48;7.00;;;;;;;;;;5095059;28;20469;-73
2021/01/03 06:35:36;;;;;;;12.65;6.93;;;;;;;;;;5095596;28;20077;-73
2021/01/03 06:38:41;;;;;;;10.93;6.15;;;;;;;;;;5095572;28;20043;-73
2021/01/03 06:41:24;;;;;;;8.85;5.95;;;;;;;;;;5095644;28;20466;-73
2021/01/03 06:44:25;;;;;;;13.70;6.20;;;;;;;;;;5094785;28;20043;-73
2021/01/03 06:47:10;;;;;;;11.13;5.88;;;;;;;;;;5095404;28;20044;-73
2021/01/03 06:49:40;;;;;;;9.10;5.45;;;;;;;;;;5095435;28;20497;-73
2021/01/03 06:52:47;;;;;;;9.65;5.60;;;;;;;;;;5093494;28;20036;-73
2021/01/03 06:55:48;;;;;;;8.40;5.18;;;;;;;;;;5084257;28;20174;-73
2021/01/03 06:58:39;;;;;;;10.35;4.50;;;;;;;;;;5095390;28;20363;-73
2021/01/03 07:01:36;;;;;;;8.43;4.95;;;;;;;;;;5094769;28;20052;-73
2021/01/03 07:04:10;;;;;;;7.10;4.75;;;;;;;;;;5094543;28;20038;-73
2021/01/03 07:06:38;;;;;;;6.75;4.20;;;;;;;;;;5095166;28;20466;-73
2021/01/03 07:09:09;;;;;;;5.85;4.10;;;;;;;;;;5094993;28;20111;-73
2021/01/03 07:11:59;;;;;;;10.10;4.60;;;;;;;;;;5094985;28;20028;-72
2021/01/03 07:14:24;;;;;;;7.55;4.88;;;;;;;;;;5094727;28;20036;-72
2021/01/03 07:16:55;;;;;;;7.63;4.78;;;;;;;;;;5094130;28;20043;-72
2021/01/03 07:19:48;;;;;;;7.20;4.88;;;;;;;;;;5094651;28;20036;-73
2021/01/03 07:22:21;;;;;;;8.57;5.18;;;;;;;;;;5092170;28;20036;-72
2021/01/03 07:24:46;;;;;;;7.53;4.47;;;;;;;;;;5094864;28;20508;-73
2021/01/03 07:27:36;;;;;;;7.13;4.70;;;;;;;;;;5093425;28;20040;-73
2021/01/03 07:30:02;;;;;;;7.80;4.97;;;;;;;;;;5094179;28;20457;-73
2021/01/03 07:32:33;;;;;;;10.55;5.43;;;;;;;;;;5093793;28;20040;-73
2021/01/03 07:35:02;;;;;;;9.77;5.45;;;;;;;;;;5094201;28;20036;-73
2021/01/03 07:37:30;;;;;;;11.15;7.20;;;;;;;;;;5094244;28;20085;-73
2021/01/03 07:40:07;;;;;;;8.35;5.28;;;;;;;;;;5093920;28;20032;-73
2021/01/03 07:42:44;;;;;;;6.40;4.38;;;;;;;;;;5094557;28;20055;-72
2021/01/03 07:45:09;;;;;;;8.25;4.65;;;;;;;;;;5094309;28;20047;-73
2021/01/03 07:47:44;;;;;;;9.18;4.80;;;;;;;;;;5093285;28;20386;-73
2021/01/03 07:50:15;;;;;;;8.00;5.05;;;;;;;;;;5093958;28;20046;-73
2021/01/03 07:52:41;;;;;;;11.23;5.80;;;;;;;;;;5094144;28;20043;-72
2021/01/03 07:55:13;;;;;;;9.32;5.72;;;;;;;;;;5093939;28;20036;-76
2021/01/03 07:57:39;;;;;;;8.63;5.25;;;;;;;;;;5092957;28;20043;-73
2021/01/03 08:00:05;;;;;;;8.60;4.90;;;;;;;;;;5094057;28;20036;-73
2021/01/03 08:02:33;;;;;;;8.68;5.28;;;;;;;;;;5092449;28;20065;-73
2021/01/03 08:05:00;;;;;;;11.13;5.88;;;;;;;;;;5094121;28;20032;-72
2021/01/03 08:07:26;;;;;;;7.63;4.75;;;;;;;;;;5093716;28;20493;-73
2021/01/03 08:09:51;;;;;;;7.05;4.88;;;;;;;;;;5093909;28;20122;-72
2021/01/03 08:12:20;;;;;;;8.52;5.28;;;;;;;;;;5094167;28;20028;-75
2021/01/03 08:14:46;;;;;;;7.82;4.78;;;;;;;;;;5093735;28;20416;-74
2021/01/03 08:17:32;;;;;;;7.05;4.85;;;;;;;;;;5093626;28;20168;-74
2021/01/03 08:20:03;;;;;;;7.30;4.45;;;;;;;;;;5093050;28;20039;-74
2021/01/03 08:22:30;;;;;;;8.90;4.95;;;;;;;;;;5093019;28;20449;-74
2021/01/03 08:24:58;;;;;;;8.00;4.90;;;;;;;;;;5093753;28;20066;-73
2021/01/03 08:27:43;;;;;;;9.23;5.20;;;;;;;;;;5092667;28;20042;-73
2021/01/03 08:30:14;;;;;;;8.93;5.70;;;;;;;;;;5093068;28;20036;-74
2021/01/03 08:32:40;;;;;;;9.98;5.97;;;;;;;;;;5093484;28;20046;-73
2021/01/03 08:35:13;;;;;;;10.68;6.20;;;;;;;;;;5093528;28;20081;-73
2021/01/03 08:37:42;;;;;;;10.57;6.25;;;;;;;;;;5093317;28;20059;-76
2021/01/03 08:40:32;;;;;;;17.42;9.13;;;;;;;;;;5092947;28;20405;-73
2021/01/03 08:43:03;;;;;;;18.67;10.73;;;;;;;;;;5092699;28;20040;-73
2021/01/03 08:45:33;;;;;;;9.88;6.35;;;;;;;;;;5093078;28;20089;-72
2021/01/03 08:48:01;;;;;;;12.10;6.88;;;;;;;;;;5093549;28;20564;-72
2021/01/03 08:50:31;;;;;;;10.35;5.75;;;;;;;;;;5093427;28;20111;-73
2021/01/03 08:53:00;;;;;;;8.07;4.88;;;;;;;;;;5092795;28;20035;-75
2021/01/03 08:55:29;;;;;;;8.15;4.80;;;;;;;;;;5093268;28;20116;-73
2021/01/03 08:58:01;;;;;;;8.60;4.78;;;;;;;;;;5093269;28;20051;-73
2021/01/03 09:00:31;;;;;;;9.32;5.35;;;;;;;;;;5093369;28;20032;-73
2021/01/03 09:02:58;;;;;;;7.55;4.90;;;;;;;;;;5093388;28;20071;-73
2021/01/03 09:05:30;;;;;;;7.68;4.88;;;;;;;;;;5092817;28;20040;-72
2021/01/03 09:07:56;;;;;;;8.25;5.13;;;;;;;;;;5093274;28;20032;-74
2021/01/03 09:10:34;;;;;;;10.10;6.00;;;;;;;;;;5092887;28;20496;-74
2021/01/03 09:13:27;;;;;;;9.50;6.05;;;;;;;;;;5093234;28;20044;-75
2021/01/03 09:16:06;;;;;;;9.18;5.05;;;;;;;;;;5087315;28;20047;-73
2021/01/03 09:18:39;;;;;;;11.27;5.70;;;;;;;;;;5091718;28;20036;-74
2021/01/03 09:21:08;;;;;;;19.15;11.02;;;;;;;;;;5091739;28;20149;-75
2021/01/03 09:23:38;;;;;;;9.23;5.65;;;;;;;;;;5092190;28;20066;-76
2021/01/03 09:26:04;;;;;;;8.18;5.15;;;;;;;;;;5092662;28;20075;-74
2021/01/03 09:28:31;;;;;;;10.05;5.45;;;;;;;;;;5092040;28;20390;-74
2021/01/03 09:31:16;;;;;;;10.75;5.40;;;;;;;;;;5093051;28;20427;-74
2021/01/03 09:33:50;;;;;;;8.32;5.03;;;;;;;;;;5092787;28;20024;-74
2021/01/03 09:36:44;;;;;;;9.55;5.57;;;;;;;;;;5097443;28;20119;-79
2021/01/03 09:39:31;;;;;;;9.18;5.18;;;;;;;;;;5097023;28;20100;-77
2021/01/03 09:42:16;;;;;;;7.65;4.78;;;;;;;;;;5096003;28;20427;-73
2021/01/03 09:44:58;;;;;;;9.55;5.13;;;;;;;;;;5089285;28;20062;-77
2021/01/03 09:47:41;;;;;;;11.27;5.40;;;;;;;;;;5096337;28;20036;-75
2021/01/03 09:50:31;;;;;;;9.32;5.35;;;;;;;;;;5097297;28;20119;-74
2021/01/03 09:53:26;;;;;;;9.55;5.15;;;;;;;;;;5095941;28;20036;-77
2021/01/03 09:56:01;;;;;;;9.30;5.13;;;;;;;;;;5096688;28;20152;-76
2021/01/03 09:58:35;;;;;;;8.05;5.28;;;;;;;;;;5096387;28;20404;-76
2021/01/03 10:01:00;;;;;;;9.85;5.20;;;;;;;;;;5096440;28;20035;-75
2021/01/03 10:03:41;;;;;;;10.23;5.80;;;;;;;;;;5095226;28;20466;-74
2021/01/03 10:06:29;;;;;;;8.93;5.05;;;;;;;;;;5096405;28;20041;-76
2021/01/03 10:09:15;;;;;;;6.25;4.10;;;;;;;;;;5096431;28;20407;-76
2021/01/03 10:11:41;;;;;;;10.85;4.95;;;;;;;;;;5097274;28;20386;-77
2021/01/03 10:14:11;;;;;;;6.72;4.22;;;;;;;;;;5096810;28;20032;-77
2021/01/03 10:16:39;;;;;;;8.10;4.28;;;;;;;;;;5095089;28;20032;-76
2021/01/03 10:19:19;;;;;;;7.80;4.80;;;;;;;;;;5095880;28;20123;-76
2021/01/03 10:21:44;;;;;;;8.00;5.47;;;;;;;;;;5094680;28;20036;-76
2021/01/03 10:24:21;;;;;;;9.77;5.90;;;;;;;;;;5096045;28;20047;-76
2021/01/03 10:27:13;;;;;;;6.18;4.55;;;;;;;;;;5096031;28;20570;-76
2021/01/03 10:29:40;;;;;;;10.02;6.47;;;;;;;;;;5095368;28;20070;-75
2021/01/03 10:32:06;;;;;;;12.68;7.55;;;;;;;;;;5094635;28;20078;-74
2021/01/03 10:34:31;;;;;;;6.03;3.97;;;;;;;;;;5094588;28;20097;-75
2021/01/03 10:36:58;;;;;;;5.28;3.63;;;;;;;;;;5094627;28;20482;-75
2021/01/03 10:39:25;;;;;;;5.75;4.13;;;;;;;;;;5095705;28;20492;-75
2021/01/03 10:41:50;;;;;;;8.90;5.70;;;;;;;;;;5095994;28;20036;-75
2021/01/03 10:44:17;;;;;;;10.38;6.20;;;;;;;;;;5094963;28;20056;-74
2021/01/03 10:46:42;;;;;;;10.82;5.32;;;;;;;;;;5095039;28;20044;-75
2021/01/03 10:49:09;;;;;;;6.35;4.22;;;;;;;;;;5095450;28;20036;-74
2021/01/03 10:51:43;;;;;;;6.07;4.07;;;;;;;;;;5095145;28;20051;-74
2021/01/03 10:54:12;;;;;;;5.35;3.92;;;;;;;;;;5094195;28;20085;-73
2021/01/03 10:56:37;;;;;;;5.97;4.00;;;;;;;;;;5094680;28;20036;-73
2021/01/03 10:59:04;;;;;;;7.40;4.45;;;;;;;;;;5095220;28;20047;-73
2021/01/03 11:01:29;;;;;;;9.32;4.65;;;;;;;;;;5094735;28;20182;-73
2021/01/03 11:03:55;;;;;;;5.07;3.95;;;;;;;;;;5095454;28;20028;-73
2021/01/03 11:06:20;;;;;;;8.30;4.60;;;;;;;;;;5094230;28;20055;-73
2021/01/03 11:08:46;;;;;;;6.88;4.07;;;;;;;;;;5094036;28;20568;-74
2021/01/03 11:11:19;;;;;;;6.72;4.20;;;;;;;;;;5093294;28;20465;-73
2021/01/03 11:13:44;;;;;;;5.75;3.97;;;;;;;;;;5094346;28;20119;-74
2021/01/03 11:16:10;;;;;;;6.95;4.22;;;;;;;;;;5092834;28;20127;-73
2021/01/03 11:18:35;;;;;;;8.23;4.88;;;;;;;;;;5094927;28;20036;-73
2021/01/03 11:21:00;;;;;;;7.82;4.57;;;;;;;;;;5094770;28;20036;-73
2021/01/03 11:23:26;;;;;;;7.72;5.30;;;;;;;;;;5094623;28;20077;-73
2021/01/03 11:25:51;;;;;;;7.07;4.55;;;;;;;;;;5094755;28;20040;-73
2021/01/03 11:28:17;;;;;;;8.85;4.60;;;;;;;;;;5094730;28;20036;-73
2021/01/03 11:30:43;;;;;;;8.10;4.55;;;;;;;;;;5094368;28;20098;-73
2021/01/03 11:33:08;;;;;;;11.68;6.55;;;;;;;;;;5094624;28;20032;-73
2021/01/03 11:35:34;;;;;;;10.50;6.10;;;;;;;;;;5093370;28;20127;-73
2021/01/03 11:37:59;;;;;;;12.52;7.68;;;;;;;;;;5094309;28;20062;-73
2021/01/03 11:40:25;;;;;;;13.43;7.22;;;;;;;;;;5094126;28;20036;-73
2021/01/03 11:42:50;;;;;;;17.23;8.23;;;;;;;;;;5094020;28;20047;-73
2021/01/03 11:45:18;;;;;;;13.07;7.40;;;;;;;;;;5094214;28;20073;-73
2021/01/03 11:47:44;;;;;;;13.90;7.65;;;;;;;;;;5094178;28;20032;-73
2021/01/03 11:50:12;;;;;;;9.75;6.03;;;;;;;;;;5094286;28;20040;-74
2021/01/03 11:52:39;;;;;;;11.82;6.45;;;;;;;;;;5094085;28;20054;-74
2021/01/03 11:55:06;;;;;;;12.90;7.18;;;;;;;;;;5094388;28;20032;-75
2021/01/03 11:57:32;;;;;;;14.57;8.43;;;;;;;;;;5092301;28;20057;-75
2021/01/03 11:59:57;;;;;;;14.95;9.10;;;;;;;;;;5094076;28;20040;-74
2021/01/03 12:02:22;;;;;;;12.30;7.13;;;;;;;;;;5094104;28;20024;-75
2021/01/03 12:04:48;;;;;;;8.77;5.53;;;;;;;;;;5094193;28;20036;-75
2021/01/03 12:07:16;;;;;;;9.98;5.40;;;;;;;;;;5094113;28;20075;-75
2021/01/03 12:09:42;;;;;;;7.47;4.53;;;;;;;;;;5092737;28;20027;-75
2021/01/03 12:12:13;;;;;;;10.80;6.30;;;;;;;;;;5094063;28;20032;-75
2021/01/03 12:14:39;;;;;;;9.70;6.03;;;;;;;;;;5094032;28;20032;-75
2021/01/03 12:17:09;;;;;;;55.40;25.48;;;;;;;;;;5093832;28;20088;-75
2021/01/03 12:19:35;;;;;;;25.50;10.80;;;;;;;;;;5093134;28;20435;-75
2021/01/03 12:22:03;;;;;;;16.02;7.80;;;;;;;;;;5093387;28;20032;-74
2021/01/03 12:24:29;;;;;;;7.18;4.50;;;;;;;;;;5093543;28;20185;-74
2021/01/03 12:26:55;;;;;;;9.20;4.57;;;;;;;;;;5093354;28;20507;-74
2021/01/03 12:29:23;;;;;;;7.72;3.70;;;;;;;;;;5083645;28;20060;-74
2021/01/03 12:31:54;;;;;;;5.72;3.28;;;;;;;;;;5081861;28;20497;-74
2021/01/03 12:34:23;;;;;;;4.95;3.17;;;;;;;;;;5081903;28;20089;-74
2021/01/03 12:36:48;;;;;;;7.35;3.30;;;;;;;;;;5081158;28;20111;-74
2021/01/03 12:39:15;;;;;;;5.72;3.25;;;;;;;;;;5083170;28;20111;-74
2021/01/03 12:41:41;;;;;;;4.50;2.95;;;;;;;;;;5080316;28;20032;-74
2021/01/03 12:44:07;;;;;;;4.63;2.85;;;;;;;;;;5082657;28;20044;-74
2021/01/03 12:46:36;;;;;;;4.18;2.60;;;;;;;;;;5085303;28;20118;-74
2021/01/03 12:49:02;;;;;;;4.18;3.08;;;;;;;;;;5093257;28;20089;-75
2021/01/03 12:51:27;;;;;;;4.40;2.72;;;;;;;;;;5093404;28;20036;-75
2021/01/03 12:53:53;;;;;;;7.30;2.60;;;;;;;;;;5093373;28;20450;-74
2021/01/03 12:56:22;;;;;;;5.45;2.85;;;;;;;;;;5093508;28;20094;-75
2021/01/03 12:58:54;;;;;;;3.67;2.30;;;;;;;;;;5093125;28;20089;-75
2021/01/03 13:01:26;;;;;;;4.55;2.72;;;;;;;;;;5081949;28;20056;-75
2021/01/03 13:03:51;;;;;;;3.05;2.42;;;;;;;;;;5082596;28;20071;-75
2021/01/03 13:06:17;;;;;;;4.85;2.97;;;;;;;;;;5090679;28;20051;-75
2021/01/03 13:08:44;;;;;;;3.13;2.28;;;;;;;;;;5095067;28;20038;-74
2021/01/03 13:11:09;;;;;;;5.13;2.53;;;;;;;;;;5097048;28;20040;-74
2021/01/03 13:13:35;;;;;;;3.17;2.40;;;;;;;;;;5097343;28;20019;-75
2021/01/03 13:16:00;;;;;;;3.88;2.65;;;;;;;;;;5096494;28;20107;-75
2021/01/03 13:18:25;;;;;;;4.93;3.28;;;;;;;;;;5096944;28;20515;-74
2021/01/03 13:20:51;;;;;;;4.88;2.88;;;;;;;;;;5097480;28;20040;-74
2021/01/03 13:23:16;;;;;;;4.30;2.67;;;;;;;;;;5097368;28;20052;-74
2021/01/03 13:25:41;;;;;;;3.85;2.63;;;;;;;;;;5097294;28;20370;-74
2021/01/03 13:28:07;;;;;;;2.63;1.63;;;;;;;;;;5097207;28;20058;-74
2021/01/03 13:30:32;;;;;;;1.67;1.55;;;;;;;;;;5097060;28;20032;-74
2021/01/03 13:32:57;;;;;;;2.10;1.63;;;;;;;;;;5095629;28;20040;-74
2021/01/03 13:35:23;;;;;;;3.28;1.98;;;;;;;;;;5095753;28;20131;-76
2021/01/03 13:37:48;;;;;;;2.40;1.83;;;;;;;;;;5096833;28;20188;-74
2021/01/03 13:40:14;;;;;;;2.60;1.77;;;;;;;;;;5096882;28;20043;-74
2021/01/03 13:42:40;;;;;;;1.98;1.77;;;;;;;;;;5096858;28;20047;-74
2021/01/03 13:45:08;;;;;;;2.67;1.63;;;;;;;;;;5095462;28;20440;-74
2021/01/03 13:47:33;;;;;;;6.07;3.42;;;;;;;;;;5095794;28;20442;-74
2021/01/03 13:49:58;;;;;;;2.85;1.95;;;;;;;;;;5096929;28;20106;-74
2021/01/03 13:52:24;;;;;;;2.15;1.65;;;;;;;;;;5096705;28;20420;-74
2021/01/03 13:54:49;;;;;;;1.85;1.67;;;;;;;;;;5096498;28;20042;-74
2021/01/03 13:57:15;;;;;;;2.22;1.73;;;;;;;;;;5096012;28;20085;-74
2021/01/03 13:59:41;;;;;;;2.70;1.80;;;;;;;;;;5096451;28;20032;-74
2021/01/03 14:02:07;;;;;;;2.28;1.70;;;;;;;;;;5096561;28;20540;-74
2021/01/03 14:04:32;;;;;;;2.08;1.88;;;;;;;;;;5096523;28;20036;-74
2021/01/03 14:06:58;;;;;;;2.88;1.75;;;;;;;;;;5096603;28;20420;-74
2021/01/03 14:09:23;;;;;;;2.10;1.80;;;;;;;;;;5096396;28;20039;-74
2021/01/03 14:11:49;;;;;;;1.90;1.70;;;;;;;;;;5096170;28;20529;-74
2021/01/03 14:14:14;;;;;;;10.90;5.22;;;;;;;;;;5096182;28;20062;-74
2021/01/03 14:16:40;;;;;;;7.15;4.10;;;;;;;;;;5094086;28;20036;-74
2021/01/03 14:19:05;;;;;;;5.28;3.10;;;;;;;;;;5095478;28;20028;-74
2021/01/03 14:21:38;;;;;;;3.00;2.10;;;;;;;;;;5095986;28;20466;-74
2021/01/03 14:24:04;;;;;;;2.13;1.63;;;;;;;;;;5096087;28;20072;-74
2021/01/03 14:26:41;;;;;;;3.58;2.30;;;;;;;;;;5095978;28;20071;-74
2021/01/03 14:29:09;;;;;;;4.03;2.25;;;;;;;;;;5095956;28;20123;-74
2021/01/03 14:31:36;;;;;;;2.17;1.73;;;;;;;;;;5095809;28;20048;-74
2021/01/03 14:34:33;;;;;;;3.05;2.17;;;;;;;;;;5095985;28;20112;-74
2021/01/03 14:37:00;;;;;;;;;;;;;;;;;;5096274;28;20036;-74
2021/01/03 14:39:26;;;;;;;2.88;1.85;;;;;;;;;;5095761;28;19923;-74
2021/01/03 14:41:54;;;;;;;3.65;2.50;;;;;;;;;;5095960;28;20118;-74
2021/01/03 14:44:28;;;;;;;2.65;1.98;;;;;;;;;;5095652;28;20058;-74
2021/01/03 14:47:03;;;;;;;3.55;2.25;;;;;;;;;;5095774;28;20055;-74
2021/01/03 14:49:55;;;;;;;3.72;2.53;;;;;;;;;;5076833;28;20126;-74
2021/01/03 14:52:38;;;;;;;4.55;2.60;;;;;;;;;;5093724;28;20051;-74
2021/01/03 14:55:25;;;;;;;6.35;3.70;;;;;;;;;;5095522;28;20039;-75